sensor_id;sensor_type;location;lat;lon;timestamp;temperature;humidity
3868;DHT22;1949;48.152;11.528;2023-04-03T00:01:10;12.50;43.70
3868;DHT22;1949;48.152;11.528;2023-04-03T00:03:36;12.50;43.70
3868;DHT22;1949;48.152;11.528;2023-04-03T00:06:03;12.50;43.60
3868;DHT22;1949;48.152;11.528;2023-04-03T00:08:35;12.50;43.60
3868;DHT22;1949;48.152;11.528;2023-04-03T00:11:04;12.50;43.40
3868;DHT22;1949;48.152;11.528;2023-04-03T00:13:34;12.50;43.50
3868;DHT22;1949;48.152;11.528;2023-04-03T00:16:03;12.50;43.50
3868;DHT22;1949;48.152;11.528;2023-04-03T00:18:30;12.50;43.50
3868;DHT22;1949;48.152;11.528;2023-04-03T00:20:57;12.50;43.60
3868;DHT22;1949;48.152;11.528;2023-04-03T00:23:23;12.50;43.50
3868;DHT22;1949;48.152;11.528;2023-04-03T00:25:50;12.50;43.50
3868;DHT22;1949;48.152;11.528;2023-04-03T00:28:17;12.50;44.00
3868;DHT22;1949;48.152;11.528;2023-04-03T00:30:42;12.50;43.50
3868;DHT22;1949;48.152;11.528;2023-04-03T00:33:11;12.50;43.50
3868;DHT22;1949;48.152;11.528;2023-04-03T00:35:38;12.50;43.40
3868;DHT22;1949;48.152;11.528;2023-04-03T00:38:03;12.50;43.40
3868;DHT22;1949;48.152;11.528;2023-04-03T00:40:37;12.60;43.60
3868;DHT22;1949;48.152;11.528;2023-04-03T00:43:32;12.50;43.50
3868;DHT22;1949;48.152;11.528;2023-04-03T00:45:58;12.50;43.50
3868;DHT22;1949;48.152;11.528;2023-04-03T00:48:44;12.50;43.50
3868;DHT22;1949;48.152;11.528;2023-04-03T00:51:16;12.50;44.00
3868;DHT22;1949;48.152;11.528;2023-04-03T00:53:50;12.50;43.50
3868;DHT22;1949;48.152;11.528;2023-04-03T00:56:19;12.50;43.40
3868;DHT22;1949;48.152;11.528;2023-04-03T00:58:59;12.50;43.40
3868;DHT22;1949;48.152;11.528;2023-04-03T01:01:28;12.50;43.30
3868;DHT22;1949;48.152;11.528;2023-04-03T01:03:58;12.40;43.20
3868;DHT22;1949;48.152;11.528;2023-04-03T01:06:27;12.40;43.30
3868;DHT22;1949;48.152;11.528;2023-04-03T01:08:55;12.40;43.30
3868;DHT22;1949;48.152;11.528;2023-04-03T01:11:21;12.40;43.30
3868;DHT22;1949;48.152;11.528;2023-04-03T01:13:47;12.40;43.30
3868;DHT22;1949;48.152;11.528;2023-04-03T01:16:13;12.40;43.30
3868;DHT22;1949;48.152;11.528;2023-04-03T01:18:41;12.40;43.30
3868;DHT22;1949;48.152;11.528;2023-04-03T01:26:29;12.40;43.30
3868;DHT22;1949;48.152;11.528;2023-04-03T01:28:58;12.40;43.30
3868;DHT22;1949;48.152;11.528;2023-04-03T01:31:53;12.40;43.30
3868;DHT22;1949;48.152;11.528;2023-04-03T01:34:19;12.40;43.30
3868;DHT22;1949;48.152;11.528;2023-04-03T01:36:45;12.40;43.30
3868;DHT22;1949;48.152;11.528;2023-04-03T01:39:12;12.40;43.30
3868;DHT22;1949;48.152;11.528;2023-04-03T01:41:38;12.40;43.30
3868;DHT22;1949;48.152;11.528;2023-04-03T01:44:06;12.40;43.30
3868;DHT22;1949;48.152;11.528;2023-04-03T01:46:32;12.40;43.30
3868;DHT22;1949;48.152;11.528;2023-04-03T01:49:01;12.40;43.30
3868;DHT22;1949;48.152;11.528;2023-04-03T01:51:27;12.40;43.10
3868;DHT22;1949;48.152;11.528;2023-04-03T01:53:52;12.30;43.00
3868;DHT22;1949;48.152;11.528;2023-04-03T01:56:19;12.30;43.10
3868;DHT22;1949;48.152;11.528;2023-04-03T01:58:47;12.30;43.20
3868;DHT22;1949;48.152;11.528;2023-04-03T02:01:14;12.30;43.10
3868;DHT22;1949;48.152;11.528;2023-04-03T02:03:44;12.30;43.20
3868;DHT22;1949;48.152;11.528;2023-04-03T02:06:10;12.20;43.20
3868;DHT22;1949;48.152;11.528;2023-04-03T02:08:35;12.30;43.20
3868;DHT22;1949;48.152;11.528;2023-04-03T02:11:03;12.20;43.20
3868;DHT22;1949;48.152;11.528;2023-04-03T02:13:29;12.20;43.10
3868;DHT22;1949;48.152;11.528;2023-04-03T02:15:56;12.20;43.10
3868;DHT22;1949;48.152;11.528;2023-04-03T02:18:21;12.20;43.20
3868;DHT22;1949;48.152;11.528;2023-04-03T02:20:47;12.20;43.20
3868;DHT22;1949;48.152;11.528;2023-04-03T02:23:13;12.10;43.10
3868;DHT22;1949;48.152;11.528;2023-04-03T02:25:41;12.20;43.20
3868;DHT22;1949;48.152;11.528;2023-04-03T02:28:06;12.20;43.20
3868;DHT22;1949;48.152;11.528;2023-04-03T02:30:32;12.20;43.20
3868;DHT22;1949;48.152;11.528;2023-04-03T02:32:58;12.20;43.20
3868;DHT22;1949;48.152;11.528;2023-04-03T02:35:24;12.30;43.30
3868;DHT22;1949;48.152;11.528;2023-04-03T02:37:49;12.30;43.20
3868;DHT22;1949;48.152;11.528;2023-04-03T02:40:16;12.30;43.20
3868;DHT22;1949;48.152;11.528;2023-04-03T02:42:42;12.30;43.10
3868;DHT22;1949;48.152;11.528;2023-04-03T02:45:07;12.30;43.10
3868;DHT22;1949;48.152;11.528;2023-04-03T02:47:33;12.30;43.10
3868;DHT22;1949;48.152;11.528;2023-04-03T02:49:59;12.30;43.10
3868;DHT22;1949;48.152;11.528;2023-04-03T02:52:25;12.30;43.10
3868;DHT22;1949;48.152;11.528;2023-04-03T02:54:51;12.30;43.00
3868;DHT22;1949;48.152;11.528;2023-04-03T02:57:17;12.30;43.10
3868;DHT22;1949;48.152;11.528;2023-04-03T02:59:44;12.30;43.50
3868;DHT22;1949;48.152;11.528;2023-04-03T03:02:10;12.30;43.10
3868;DHT22;1949;48.152;11.528;2023-04-03T03:04:37;12.30;43.00
3868;DHT22;1949;48.152;11.528;2023-04-03T03:07:05;12.20;42.90
3868;DHT22;1949;48.152;11.528;2023-04-03T03:09:31;12.30;43.00
3868;DHT22;1949;48.152;11.528;2023-04-03T03:11:57;12.40;43.10
3868;DHT22;1949;48.152;11.528;2023-04-03T03:14:23;12.30;43.00
3868;DHT22;1949;48.152;11.528;2023-04-03T03:16:49;12.30;42.90
3868;DHT22;1949;48.152;11.528;2023-04-03T03:19:15;12.30;42.90
3868;DHT22;1949;48.152;11.528;2023-04-03T03:21:40;12.30;42.80
3868;DHT22;1949;48.152;11.528;2023-04-03T03:24:07;12.30;42.90
3868;DHT22;1949;48.152;11.528;2023-04-03T03:26:33;12.30;42.80
3868;DHT22;1949;48.152;11.528;2023-04-03T03:29:00;12.30;42.80
3868;DHT22;1949;48.152;11.528;2023-04-03T03:31:25;12.30;42.70
3868;DHT22;1949;48.152;11.528;2023-04-03T03:33:52;12.20;42.60
3868;DHT22;1949;48.152;11.528;2023-04-03T03:36:18;12.20;42.60
3868;DHT22;1949;48.152;11.528;2023-04-03T03:38:43;12.20;42.60
3868;DHT22;1949;48.152;11.528;2023-04-03T03:41:10;12.20;42.60
3868;DHT22;1949;48.152;11.528;2023-04-03T03:43:38;12.20;42.60
3868;DHT22;1949;48.152;11.528;2023-04-03T03:46:03;12.20;42.60
3868;DHT22;1949;48.152;11.528;2023-04-03T03:48:33;12.20;42.60
3868;DHT22;1949;48.152;11.528;2023-04-03T03:51:02;12.20;42.50
3868;DHT22;1949;48.152;11.528;2023-04-03T03:53:28;12.20;42.60
3868;DHT22;1949;48.152;11.528;2023-04-03T03:55:53;12.20;42.50
3868;DHT22;1949;48.152;11.528;2023-04-03T03:58:19;12.20;42.40
3868;DHT22;1949;48.152;11.528;2023-04-03T04:00:45;12.20;42.40
3868;DHT22;1949;48.152;11.528;2023-04-03T04:03:12;12.20;42.40
3868;DHT22;1949;48.152;11.528;2023-04-03T04:05:42;12.10;42.40
3868;DHT22;1949;48.152;11.528;2023-04-03T04:08:08;12.20;42.40
3868;DHT22;1949;48.152;11.528;2023-04-03T04:10:34;12.10;42.30
3868;DHT22;1949;48.152;11.528;2023-04-03T04:13:01;12.10;42.40
3868;DHT22;1949;48.152;11.528;2023-04-03T04:15:27;12.10;42.30
3868;DHT22;1949;48.152;11.528;2023-04-03T04:17:53;12.10;42.40
3868;DHT22;1949;48.152;11.528;2023-04-03T04:20:20;12.10;42.40
3868;DHT22;1949;48.152;11.528;2023-04-03T04:22:47;12.10;42.40
3868;DHT22;1949;48.152;11.528;2023-04-03T04:25:13;12.20;42.30
3868;DHT22;1949;48.152;11.528;2023-04-03T04:27:40;12.10;42.20
3868;DHT22;1949;48.152;11.528;2023-04-03T04:30:06;12.10;42.20
3868;DHT22;1949;48.152;11.528;2023-04-03T04:32:32;12.10;42.20
3868;DHT22;1949;48.152;11.528;2023-04-03T04:34:58;12.10;42.20
3868;DHT22;1949;48.152;11.528;2023-04-03T04:37:25;12.10;42.20
3868;DHT22;1949;48.152;11.528;2023-04-03T04:39:51;12.10;42.20
3868;DHT22;1949;48.152;11.528;2023-04-03T04:42:17;12.00;42.20
3868;DHT22;1949;48.152;11.528;2023-04-03T04:44:43;12.10;42.30
3868;DHT22;1949;48.152;11.528;2023-04-03T04:47:08;12.10;42.20
3868;DHT22;1949;48.152;11.528;2023-04-03T04:49:35;12.00;42.10
3868;DHT22;1949;48.152;11.528;2023-04-03T04:52:01;12.10;42.10
3868;DHT22;1949;48.152;11.528;2023-04-03T04:54:27;12.00;42.10
3868;DHT22;1949;48.152;11.528;2023-04-03T04:56:52;12.00;42.10
3868;DHT22;1949;48.152;11.528;2023-04-03T04:59:18;12.00;42.10
3868;DHT22;1949;48.152;11.528;2023-04-03T05:01:44;12.00;42.10
3868;DHT22;1949;48.152;11.528;2023-04-03T05:04:10;12.10;42.20
3868;DHT22;1949;48.152;11.528;2023-04-03T05:06:37;12.00;42.10
3868;DHT22;1949;48.152;11.528;2023-04-03T05:09:03;12.10;42.10
3868;DHT22;1949;48.152;11.528;2023-04-03T05:11:30;12.00;42.10
3868;DHT22;1949;48.152;11.528;2023-04-03T05:13:56;12.10;42.10
3868;DHT22;1949;48.152;11.528;2023-04-03T05:16:22;12.10;42.10
3868;DHT22;1949;48.152;11.528;2023-04-03T05:18:48;12.10;42.00
3868;DHT22;1949;48.152;11.528;2023-04-03T05:21:13;12.10;42.10
3868;DHT22;1949;48.152;11.528;2023-04-03T05:23:40;12.00;42.00
3868;DHT22;1949;48.152;11.528;2023-04-03T05:26:05;12.00;42.00
3868;DHT22;1949;48.152;11.528;2023-04-03T05:28:32;12.10;42.00
3868;DHT22;1949;48.152;11.528;2023-04-03T05:30:58;12.00;41.90
3868;DHT22;1949;48.152;11.528;2023-04-03T05:33:25;12.00;42.00
3868;DHT22;1949;48.152;11.528;2023-04-03T05:35:53;12.00;42.20
3868;DHT22;1949;48.152;11.528;2023-04-03T05:38:19;12.00;42.20
3868;DHT22;1949;48.152;11.528;2023-04-03T05:40:48;12.00;42.10
3868;DHT22;1949;48.152;11.528;2023-04-03T05:43:17;12.00;42.10
3868;DHT22;1949;48.152;11.528;2023-04-03T05:45:43;12.00;42.10
3868;DHT22;1949;48.152;11.528;2023-04-03T05:48:08;12.00;42.30
3868;DHT22;1949;48.152;11.528;2023-04-03T05:50:34;12.00;42.20
3868;DHT22;1949;48.152;11.528;2023-04-03T05:53:02;12.00;42.10
3868;DHT22;1949;48.152;11.528;2023-04-03T05:55:28;12.00;42.00
3868;DHT22;1949;48.152;11.528;2023-04-03T05:57:55;12.00;42.00
3868;DHT22;1949;48.152;11.528;2023-04-03T06:00:22;12.00;42.10
3868;DHT22;1949;48.152;11.528;2023-04-03T06:02:47;12.00;42.00
3868;DHT22;1949;48.152;11.528;2023-04-03T06:05:13;12.10;42.10
3868;DHT22;1949;48.152;11.528;2023-04-03T06:07:40;12.00;42.40
3868;DHT22;1949;48.152;11.528;2023-04-03T06:10:07;12.00;42.20
3868;DHT22;1949;48.152;11.528;2023-04-03T06:12:33;12.10;42.00
3868;DHT22;1949;48.152;11.528;2023-04-03T06:14:59;12.00;42.00
3868;DHT22;1949;48.152;11.528;2023-04-03T06:17:25;12.10;42.00
3868;DHT22;1949;48.152;11.528;2023-04-03T06:19:52;12.10;42.00
3868;DHT22;1949;48.152;11.528;2023-04-03T06:22:18;12.10;41.90
3868;DHT22;1949;48.152;11.528;2023-04-03T06:24:44;12.10;42.00
3868;DHT22;1949;48.152;11.528;2023-04-03T06:27:11;12.10;41.90
3868;DHT22;1949;48.152;11.528;2023-04-03T06:29:42;12.10;41.80
3868;DHT22;1949;48.152;11.528;2023-04-03T06:32:10;12.10;41.80
3868;DHT22;1949;48.152;11.528;2023-04-03T06:34:36;12.10;41.80
3868;DHT22;1949;48.152;11.528;2023-04-03T06:37:03;12.10;41.80
3868;DHT22;1949;48.152;11.528;2023-04-03T06:39:29;12.00;41.70
3868;DHT22;1949;48.152;11.528;2023-04-03T06:41:55;12.10;41.80
3868;DHT22;1949;48.152;11.528;2023-04-03T06:44:22;12.10;41.90
3868;DHT22;1949;48.152;11.528;2023-04-03T06:46:48;12.10;41.80
3868;DHT22;1949;48.152;11.528;2023-04-03T06:49:17;12.10;41.70
3868;DHT22;1949;48.152;11.528;2023-04-03T06:51:43;12.10;41.50
3868;DHT22;1949;48.152;11.528;2023-04-03T06:54:08;12.10;41.70
3868;DHT22;1949;48.152;11.528;2023-04-03T06:56:34;12.00;41.60
3868;DHT22;1949;48.152;11.528;2023-04-03T06:59:00;12.10;41.70
3868;DHT22;1949;48.152;11.528;2023-04-03T07:01:28;12.10;41.50
3868;DHT22;1949;48.152;11.528;2023-04-03T07:03:54;12.10;41.50
3868;DHT22;1949;48.152;11.528;2023-04-03T07:06:20;12.10;41.60
3868;DHT22;1949;48.152;11.528;2023-04-03T07:08:46;12.10;41.60
3868;DHT22;1949;48.152;11.528;2023-04-03T07:11:13;12.10;41.50
3868;DHT22;1949;48.152;11.528;2023-04-03T07:13:39;12.10;41.40
3868;DHT22;1949;48.152;11.528;2023-04-03T07:16:06;12.10;41.30
3868;DHT22;1949;48.152;11.528;2023-04-03T07:18:33;12.10;41.40
3868;DHT22;1949;48.152;11.528;2023-04-03T07:20:59;12.10;41.40
3868;DHT22;1949;48.152;11.528;2023-04-03T07:23:25;12.10;41.50
3868;DHT22;1949;48.152;11.528;2023-04-03T07:25:51;12.10;41.40
3868;DHT22;1949;48.152;11.528;2023-04-03T07:28:19;12.10;41.50
3868;DHT22;1949;48.152;11.528;2023-04-03T07:30:50;12.20;41.40
3868;DHT22;1949;48.152;11.528;2023-04-03T07:33:19;12.20;41.30
3868;DHT22;1949;48.152;11.528;2023-04-03T07:35:45;12.30;41.40
3868;DHT22;1949;48.152;11.528;2023-04-03T07:38:11;12.20;41.10
3868;DHT22;1949;48.152;11.528;2023-04-03T07:40:37;12.10;40.90
3868;DHT22;1949;48.152;11.528;2023-04-03T07:43:05;12.10;41.00
3868;DHT22;1949;48.152;11.528;2023-04-03T07:45:32;12.00;41.00
3868;DHT22;1949;48.152;11.528;2023-04-03T07:48:03;12.00;41.10
3868;DHT22;1949;48.152;11.528;2023-04-03T07:50:29;12.00;41.00
3868;DHT22;1949;48.152;11.528;2023-04-03T07:52:56;12.00;41.10
3868;DHT22;1949;48.152;11.528;2023-04-03T07:55:24;12.00;41.20
3868;DHT22;1949;48.152;11.528;2023-04-03T07:57:50;12.00;41.20
3868;DHT22;1949;48.152;11.528;2023-04-03T08:00:17;12.00;41.20
3868;DHT22;1949;48.152;11.528;2023-04-03T08:02:44;12.00;41.20
3868;DHT22;1949;48.152;11.528;2023-04-03T08:05:12;12.00;41.30
3868;DHT22;1949;48.152;11.528;2023-04-03T08:07:38;12.00;41.10
3868;DHT22;1949;48.152;11.528;2023-04-03T08:10:05;12.00;41.10
3868;DHT22;1949;48.152;11.528;2023-04-03T08:12:31;12.10;41.20
3868;DHT22;1949;48.152;11.528;2023-04-03T08:14:59;12.10;41.10
3868;DHT22;1949;48.152;11.528;2023-04-03T08:17:25;12.10;41.10
3868;DHT22;1949;48.152;11.528;2023-04-03T08:19:52;12.10;41.70
3868;DHT22;1949;48.152;11.528;2023-04-03T08:22:18;12.10;41.10
3868;DHT22;1949;48.152;11.528;2023-04-03T08:24:44;12.10;41.70
3868;DHT22;1949;48.152;11.528;2023-04-03T08:27:09;12.10;41.10
3868;DHT22;1949;48.152;11.528;2023-04-03T08:29:36;12.10;41.10
3868;DHT22;1949;48.152;11.528;2023-04-03T08:32:04;12.10;41.10
3868;DHT22;1949;48.152;11.528;2023-04-03T08:34:30;12.10;41.10
3868;DHT22;1949;48.152;11.528;2023-04-03T08:37:00;12.20;41.10
3868;DHT22;1949;48.152;11.528;2023-04-03T08:39:27;12.20;41.00
3868;DHT22;1949;48.152;11.528;2023-04-03T08:41:56;12.30;41.10
3868;DHT22;1949;48.152;11.528;2023-04-03T08:44:29;12.20;40.90
3868;DHT22;1949;48.152;11.528;2023-04-03T08:47:12;12.10;41.00
3868;DHT22;1949;48.152;11.528;2023-04-03T08:49:47;12.20;41.00
3868;DHT22;1949;48.152;11.528;2023-04-03T08:52:35;12.20;40.90
3868;DHT22;1949;48.152;11.528;2023-04-03T08:55:05;12.20;40.90
3868;DHT22;1949;48.152;11.528;2023-04-03T08:57:40;12.30;41.00
3868;DHT22;1949;48.152;11.528;2023-04-03T09:00:20;12.30;41.00
3868;DHT22;1949;48.152;11.528;2023-04-03T09:02:50;12.30;40.90
3868;DHT22;1949;48.152;11.528;2023-04-03T09:05:41;12.30;40.90
3868;DHT22;1949;48.152;11.528;2023-04-03T09:08:28;12.30;40.80
3868;DHT22;1949;48.152;11.528;2023-04-03T09:11:20;12.30;40.90
3868;DHT22;1949;48.152;11.528;2023-04-03T09:21:51;12.30;40.80
3868;DHT22;1949;48.152;11.528;2023-04-03T09:24:17;12.30;40.80
3868;DHT22;1949;48.152;11.528;2023-04-03T09:26:51;12.30;40.80
3868;DHT22;1949;48.152;11.528;2023-04-03T09:29:21;12.30;40.80
3868;DHT22;1949;48.152;11.528;2023-04-03T09:31:49;12.30;40.90
3868;DHT22;1949;48.152;11.528;2023-04-03T09:34:26;12.40;40.80
3868;DHT22;1949;48.152;11.528;2023-04-03T09:36:55;12.50;40.80
3868;DHT22;1949;48.152;11.528;2023-04-03T09:39:27;12.50;40.70
3868;DHT22;1949;48.152;11.528;2023-04-03T09:44:31;12.50;40.50
3868;DHT22;1949;48.152;11.528;2023-04-03T09:46:58;12.60;40.70
3868;DHT22;1949;48.152;11.528;2023-04-03T09:49:24;12.60;40.60
3868;DHT22;1949;48.152;11.528;2023-04-03T09:51:50;12.50;40.40
3868;DHT22;1949;48.152;11.528;2023-04-03T09:54:36;12.50;40.30
3868;DHT22;1949;48.152;11.528;2023-04-03T09:57:12;12.50;40.30
3868;DHT22;1949;48.152;11.528;2023-04-03T09:59:56;12.40;40.40
3868;DHT22;1949;48.152;11.528;2023-04-03T10:04:58;12.40;40.40
3868;DHT22;1949;48.152;11.528;2023-04-03T10:07:37;12.40;40.40
3868;DHT22;1949;48.152;11.528;2023-04-03T10:10:21;12.30;40.40
3868;DHT22;1949;48.152;11.528;2023-04-03T10:13:01;12.30;40.40
3868;DHT22;1949;48.152;11.528;2023-04-03T10:15:29;12.30;40.30
3868;DHT22;1949;48.152;11.528;2023-04-03T10:18:02;12.20;40.30
3868;DHT22;1949;48.152;11.528;2023-04-03T10:20:37;12.20;40.40
3868;DHT22;1949;48.152;11.528;2023-04-03T10:25:40;12.20;40.60
3868;DHT22;1949;48.152;11.528;2023-04-03T10:28:20;12.20;40.60
3868;DHT22;1949;48.152;11.528;2023-04-03T10:47:21;12.30;40.50
3868;DHT22;1949;48.152;11.528;2023-04-03T10:49:59;12.30;40.30
3868;DHT22;1949;48.152;11.528;2023-04-03T10:52:48;12.20;40.10
3868;DHT22;1949;48.152;11.528;2023-04-03T10:58:40;12.10;40.00
3868;DHT22;1949;48.152;11.528;2023-04-03T11:01:45;12.00;40.10
3868;DHT22;1949;48.152;11.528;2023-04-03T11:04:17;11.90;40.10
3868;DHT22;1949;48.152;11.528;2023-04-03T11:06:59;11.90;40.20
3868;DHT22;1949;48.152;11.528;2023-04-03T11:09:34;11.80;40.00
3868;DHT22;1949;48.152;11.528;2023-04-03T11:14:42;11.80;40.30
3868;DHT22;1949;48.152;11.528;2023-04-03T11:22:35;11.70;40.30
3868;DHT22;1949;48.152;11.528;2023-04-03T11:33:15;11.70;40.20
3868;DHT22;1949;48.152;11.528;2023-04-03T11:35:53;11.70;40.30
3868;DHT22;1949;48.152;11.528;2023-04-03T11:38:25;11.80;40.40
3868;DHT22;1949;48.152;11.528;2023-04-03T11:40:54;11.80;40.30
3868;DHT22;1949;48.152;11.528;2023-04-03T11:43:30;11.80;40.20
3868;DHT22;1949;48.152;11.528;2023-04-03T11:46:05;11.90;40.40
3868;DHT22;1949;48.152;11.528;2023-04-03T11:53:54;12.00;40.10
3868;DHT22;1949;48.152;11.528;2023-04-03T11:56:40;12.10;40.10
3868;DHT22;1949;48.152;11.528;2023-04-03T12:01:55;12.10;39.90
3868;DHT22;1949;48.152;11.528;2023-04-03T12:04:26;12.10;39.80
3868;DHT22;1949;48.152;11.528;2023-04-03T12:07:00;12.10;39.70
3868;DHT22;1949;48.152;11.528;2023-04-03T12:09:35;12.20;39.60
3868;DHT22;1949;48.152;11.528;2023-04-03T12:14:54;12.20;39.40
3868;DHT22;1949;48.152;11.528;2023-04-03T12:17:26;12.30;39.50
3868;DHT22;1949;48.152;11.528;2023-04-03T12:19:53;12.30;39.30
3868;DHT22;1949;48.152;11.528;2023-04-03T12:22:20;12.40;39.40
3868;DHT22;1949;48.152;11.528;2023-04-03T12:24:51;12.50;39.50
3868;DHT22;1949;48.152;11.528;2023-04-03T12:27:33;12.50;39.20
3868;DHT22;1949;48.152;11.528;2023-04-03T12:35:04;12.70;38.80
3868;DHT22;1949;48.152;11.528;2023-04-03T12:45:52;12.80;38.50
3868;DHT22;1949;48.152;11.528;2023-04-03T12:48:27;12.80;38.50
3868;DHT22;1949;48.152;11.528;2023-04-03T12:50:53;12.80;38.40
3868;DHT22;1949;48.152;11.528;2023-04-03T12:53:32;12.90;38.40
3868;DHT22;1949;48.152;11.528;2023-04-03T12:58:53;13.10;38.50
3868;DHT22;1949;48.152;11.528;2023-04-03T13:01:25;13.10;38.10
3868;DHT22;1949;48.152;11.528;2023-04-03T13:03:56;13.10;37.80
3868;DHT22;1949;48.152;11.528;2023-04-03T13:06:26;13.10;37.60
3868;DHT22;1949;48.152;11.528;2023-04-03T13:08:57;13.10;37.70
3868;DHT22;1949;48.152;11.528;2023-04-03T13:11:26;13.20;37.80
3868;DHT22;1949;48.152;11.528;2023-04-03T13:14:01;13.30;38.20
3868;DHT22;1949;48.152;11.528;2023-04-03T13:16:29;13.60;38.20
3868;DHT22;1949;48.152;11.528;2023-04-03T13:18:55;13.90;38.30
3868;DHT22;1949;48.152;11.528;2023-04-03T13:21:28;14.20;38.40
3868;DHT22;1949;48.152;11.528;2023-04-03T13:23:59;14.40;37.70
3868;DHT22;1949;48.152;11.528;2023-04-03T13:26:29;14.60;37.30
3868;DHT22;1949;48.152;11.528;2023-04-03T13:29:02;14.60;36.90
3868;DHT22;1949;48.152;11.528;2023-04-03T13:31:37;14.50;36.60
3868;DHT22;1949;48.152;11.528;2023-04-03T13:37:00;14.20;36.30
3868;DHT22;1949;48.152;11.528;2023-04-03T13:39:29;14.10;36.30
3868;DHT22;1949;48.152;11.528;2023-04-03T13:41:58;14.00;36.30
3868;DHT22;1949;48.152;11.528;2023-04-03T13:44:34;13.90;36.40
3868;DHT22;1949;48.152;11.528;2023-04-03T13:47:22;13.80;36.40
3868;DHT22;1949;48.152;11.528;2023-04-03T13:50:03;13.80;36.60
3868;DHT22;1949;48.152;11.528;2023-04-03T13:52:39;13.70;36.60
3868;DHT22;1949;48.152;11.528;2023-04-03T14:00:29;13.50;36.40
3868;DHT22;1949;48.152;11.528;2023-04-03T14:02:56;13.40;36.40
3868;DHT22;1949;48.152;11.528;2023-04-03T14:05:22;13.30;36.50
3868;DHT22;1949;48.152;11.528;2023-04-03T14:07:53;13.30;36.50
3868;DHT22;1949;48.152;11.528;2023-04-03T14:10:18;13.30;36.60
3868;DHT22;1949;48.152;11.528;2023-04-03T14:12:44;13.20;36.50
3868;DHT22;1949;48.152;11.528;2023-04-03T14:17:44;13.20;36.70
3868;DHT22;1949;48.152;11.528;2023-04-03T14:20:18;13.00;36.40
3868;DHT22;1949;48.152;11.528;2023-04-03T14:22:46;13.10;36.40
3868;DHT22;1949;48.152;11.528;2023-04-03T14:25:12;13.40;37.10
3868;DHT22;1949;48.152;11.528;2023-04-03T14:27:44;13.70;37.40
3868;DHT22;1949;48.152;11.528;2023-04-03T14:30:17;13.90;36.70
3868;DHT22;1949;48.152;11.528;2023-04-03T14:32:42;14.10;36.40
3868;DHT22;1949;48.152;11.528;2023-04-03T14:35:08;14.20;36.10
3868;DHT22;1949;48.152;11.528;2023-04-03T14:37:34;14.30;36.10
3868;DHT22;1949;48.152;11.528;2023-04-03T14:40:02;14.50;36.30
3868;DHT22;1949;48.152;11.528;2023-04-03T14:42:35;15.00;36.60
3868;DHT22;1949;48.152;11.528;2023-04-03T14:45:02;15.60;36.70
3868;DHT22;1949;48.152;11.528;2023-04-03T14:47:29;16.10;36.40
3868;DHT22;1949;48.152;11.528;2023-04-03T14:49:56;16.70;35.90
3868;DHT22;1949;48.152;11.528;2023-04-03T14:52:26;17.20;35.50
3868;DHT22;1949;48.152;11.528;2023-04-03T14:54:54;17.60;34.60
3868;DHT22;1949;48.152;11.528;2023-04-03T14:57:23;17.50;33.50
3868;DHT22;1949;48.152;11.528;2023-04-03T14:59:49;17.30;32.80
3868;DHT22;1949;48.152;11.528;2023-04-03T15:04:47;16.50;32.70
3868;DHT22;1949;48.152;11.528;2023-04-03T15:07:13;16.20;33.00
3868;DHT22;1949;48.152;11.528;2023-04-03T15:09:39;15.90;33.00
3868;DHT22;1949;48.152;11.528;2023-04-03T15:12:08;15.70;33.20
3868;DHT22;1949;48.152;11.528;2023-04-03T15:14:34;15.60;33.40
3868;DHT22;1949;48.152;11.528;2023-04-03T15:17:00;15.40;33.40
3868;DHT22;1949;48.152;11.528;2023-04-03T15:19:26;15.30;33.40
3868;DHT22;1949;48.152;11.528;2023-04-03T15:21:51;15.20;33.40
3868;DHT22;1949;48.152;11.528;2023-04-03T15:24:17;15.00;33.50
3868;DHT22;1949;48.152;11.528;2023-04-03T15:26:43;15.00;33.60
3868;DHT22;1949;48.152;11.528;2023-04-03T15:29:08;14.90;33.50
3868;DHT22;1949;48.152;11.528;2023-04-03T15:31:34;14.80;33.40
3868;DHT22;1949;48.152;11.528;2023-04-03T15:34:00;14.70;33.50
3868;DHT22;1949;48.152;11.528;2023-04-03T15:36:26;14.60;33.40
3868;DHT22;1949;48.152;11.528;2023-04-03T15:38:51;14.60;33.60
3868;DHT22;1949;48.152;11.528;2023-04-03T15:41:18;14.50;33.60
3868;DHT22;1949;48.152;11.528;2023-04-03T15:43:44;14.50;33.40
3868;DHT22;1949;48.152;11.528;2023-04-03T15:46:10;14.50;33.40
3868;DHT22;1949;48.152;11.528;2023-04-03T15:48:36;14.40;33.40
3868;DHT22;1949;48.152;11.528;2023-04-03T15:51:02;14.40;33.30
3868;DHT22;1949;48.152;11.528;2023-04-03T15:53:27;14.30;33.10
3868;DHT22;1949;48.152;11.528;2023-04-03T15:55:53;14.30;33.30
3868;DHT22;1949;48.152;11.528;2023-04-03T15:58:20;14.30;33.30
3868;DHT22;1949;48.152;11.528;2023-04-03T16:00:46;14.20;32.90
3868;DHT22;1949;48.152;11.528;2023-04-03T16:03:16;14.20;33.10
3868;DHT22;1949;48.152;11.528;2023-04-03T16:05:42;14.30;33.10
3868;DHT22;1949;48.152;11.528;2023-04-03T16:08:08;14.30;33.00
3868;DHT22;1949;48.152;11.528;2023-04-03T16:10:36;14.30;33.00
3868;DHT22;1949;48.152;11.528;2023-04-03T16:13:02;14.20;32.70
3868;DHT22;1949;48.152;11.528;2023-04-03T16:15:29;14.30;33.00
3868;DHT22;1949;48.152;11.528;2023-04-03T16:17:57;14.50;33.20
3868;DHT22;1949;48.152;11.528;2023-04-03T16:20:24;14.70;33.20
3868;DHT22;1949;48.152;11.528;2023-04-03T16:22:50;15.00;33.20
3868;DHT22;1949;48.152;11.528;2023-04-03T16:25:17;15.20;32.90
3868;DHT22;1949;48.152;11.528;2023-04-03T16:27:42;15.20;32.50
3868;DHT22;1949;48.152;11.528;2023-04-03T16:30:09;15.10;32.20
3868;DHT22;1949;48.152;11.528;2023-04-03T16:32:36;14.90;32.10
3868;DHT22;1949;48.152;11.528;2023-04-03T16:35:02;14.70;32.10
3868;DHT22;1949;48.152;11.528;2023-04-03T16:37:28;14.60;32.30
3868;DHT22;1949;48.152;11.528;2023-04-03T16:39:54;14.50;32.40
3868;DHT22;1949;48.152;11.528;2023-04-03T16:42:20;14.30;32.20
3868;DHT22;1949;48.152;11.528;2023-04-03T16:44:45;14.20;32.20
3868;DHT22;1949;48.152;11.528;2023-04-03T16:47:11;14.30;32.40
3868;DHT22;1949;48.152;11.528;2023-04-03T16:49:39;14.10;32.30
3868;DHT22;1949;48.152;11.528;2023-04-03T16:52:05;14.00;32.30
3868;DHT22;1949;48.152;11.528;2023-04-03T16:54:32;13.90;32.20
3868;DHT22;1949;48.152;11.528;2023-04-03T16:56:58;13.80;32.40
3868;DHT22;1949;48.152;11.528;2023-04-03T16:59:24;13.80;32.30
3868;DHT22;1949;48.152;11.528;2023-04-03T17:01:49;13.70;32.20
3868;DHT22;1949;48.152;11.528;2023-04-03T17:04:15;13.70;32.20
3868;DHT22;1949;48.152;11.528;2023-04-03T17:06:41;13.70;32.30
3868;DHT22;1949;48.152;11.528;2023-04-03T17:09:08;13.60;32.30
3868;DHT22;1949;48.152;11.528;2023-04-03T17:11:35;13.50;32.20
3868;DHT22;1949;48.152;11.528;2023-04-03T17:14:01;13.50;32.30
3868;DHT22;1949;48.152;11.528;2023-04-03T17:16:28;13.40;32.10
3868;DHT22;1949;48.152;11.528;2023-04-03T17:18:54;13.30;32.10
3868;DHT22;1949;48.152;11.528;2023-04-03T17:21:20;13.30;32.10
3868;DHT22;1949;48.152;11.528;2023-04-03T17:23:50;13.30;32.20
3868;DHT22;1949;48.152;11.528;2023-04-03T17:26:19;13.20;32.00
3868;DHT22;1949;48.152;11.528;2023-04-03T17:28:46;13.20;32.20
3868;DHT22;1949;48.152;11.528;2023-04-03T17:31:12;13.10;32.20